Time,TemperatureF,DewpointF,PressureIn,WindDirection,WindDirectionDegrees,WindSpeedMPH,WindSpeedGustMPH,Humidity,HourlyPrecipIn,Conditions,Clouds,dailyrainin,SoftwareType,DateUTC
2013-04-16 00:00:00,45.5,32.0,30.21,WSW,243,6.7,6.7,43,0.00,,,-99.99,wx200d/1.3,2013-04-16 04:00:00,
2013-04-16 00:01:00,45.5,32.0,30.21,West,279,4.9,5.4,43,0.00,,,-99.99,wx200d/1.3,2013-04-16 04:01:00,
2013-04-16 00:02:00,45.5,32.0,30.21,WNW,290,5.4,5.4,43,0.00,,,-99.99,wx200d/1.3,2013-04-16 04:02:00,
2013-04-16 00:07:00,45.3,32.0,30.21,WSW,238,5.8,5.8,44,0.00,,,-99.99,wx200d/1.3,2013-04-16 04:07:00,
2013-04-16 00:08:00,45.3,32.0,30.21,West,264,4.0,7.4,44,0.00,,,-99.99,wx200d/1.3,2013-04-16 04:08:00,
2013-04-16 00:13:00,45.1,32.0,30.21,West,270,3.1,6.7,44,0.00,,,-99.99,wx200d/1.3,2013-04-16 04:13:00,
2013-04-16 00:14:00,45.1,32.0,30.21,West,259,4.9,4.9,45,0.00,,,-99.99,wx200d/1.3,2013-04-16 04:14:00,
2013-04-16 00:19:00,45.1,32.0,30.21,West,274,4.5,5.8,45,0.00,,,-99.99,wx200d/1.3,2013-04-16 04:19:00,
2013-04-16 00:24:00,45.0,32.0,30.24,West,270,3.1,0.0,45,0.00,,,-99.99,wx200d/1.3,2013-04-16 04:24:00,
2013-04-16 00:29:00,45.0,32.0,30.24,West,261,5.8,5.8,46,0.00,,,-99.99,wx200d/1.3,2013-04-16 04:29:00,
2013-04-16 00:34:00,45.0,32.0,30.24,West,270,4.9,7.4,46,0.00,,,-99.99,wx200d/1.3,2013-04-16 04:34:00,
2013-04-16 00:39:00,45.0,32.0,30.24,WSW,238,0.0,0.0,46,0.00,,,-99.99,wx200d/1.3,2013-04-16 04:39:00,
2013-04-16 00:44:00,44.8,32.0,30.24,NW,306,4.5,6.3,46,0.00,,,-99.99,wx200d/1.3,2013-04-16 04:44:00,
2013-04-16 00:49:00,44.8,32.0,30.24,WSW,252,3.1,5.4,46,0.00,,,-99.99,wx200d/1.3,2013-04-16 04:49:00,
2013-04-16 00:54:00,44.6,32.0,30.24,WSW,239,3.6,3.6,47,0.00,,,-99.99,wx200d/1.3,2013-04-16 04:54:00,
2013-04-16 01:00:00,44.6,32.0,30.24,West,265,2.7,5.4,47,0.00,,,-99.99,wx200d/1.3,2013-04-16 05:00:00,
2013-04-16 01:05:00,44.6,32.0,30.21,SSW,196,0.0,4.0,47,0.00,,,-99.99,wx200d/1.3,2013-04-16 05:05:00,
2013-04-16 01:10:00,44.4,32.0,30.21,WSW,250,3.6,0.0,47,0.00,,,-99.99,wx200d/1.3,2013-04-16 05:10:00,
2013-04-16 01:15:00,44.4,32.0,30.21,West,275,3.6,3.6,48,0.00,,,-99.99,wx200d/1.3,2013-04-16 05:15:00,
2013-04-16 01:20:00,44.4,32.0,30.24,WSW,242,4.0,4.5,48,0.00,,,-99.99,wx200d/1.3,2013-04-16 05:20:00,
2013-04-16 01:25:00,44.4,32.0,30.24,WSW,242,3.6,0.0,48,0.00,,,-99.99,wx200d/1.3,2013-04-16 05:25:00,
2013-04-16 01:31:00,44.4,32.0,30.24,WNW,286,3.6,4.5,48,0.00,,,-99.99,wx200d/1.3,2013-04-16 05:31:00,
2013-04-16 01:36:00,44.4,32.0,30.24,West,281,3.1,3.1,49,0.00,,,-99.99,wx200d/1.3,2013-04-16 05:36:00,
2013-04-16 01:41:00,44.4,32.0,30.24,WSW,244,3.6,0.0,48,0.00,,,-99.99,wx200d/1.3,2013-04-16 05:41:00,
2013-04-16 01:46:00,44.2,32.0,30.24,WSW,248,2.7,0.0,49,0.00,,,-99.99,wx200d/1.3,2013-04-16 05:46:00,
2013-04-16 01:51:00,44.2,32.0,30.24,West,270,3.6,3.6,49,0.00,,,-99.99,wx200d/1.3,2013-04-16 05:51:00,
2013-04-16 01:56:00,44.2,32.0,30.24,WSW,252,0.0,0.0,50,0.00,,,-99.99,wx200d/1.3,2013-04-16 05:56:00,
2013-04-16 02:01:00,44.4,32.0,30.24,WSW,258,4.5,4.5,51,0.00,,,-99.99,wx200d/1.3,2013-04-16 06:01:00,
2013-04-16 02:06:00,44.2,32.0,30.24,SW,224,3.1,0.0,51,0.00,,,-99.99,wx200d/1.3,2013-04-16 06:06:00,
2013-04-16 02:11:00,44.1,32.0,30.24,WSW,254,3.6,3.6,51,0.00,,,-99.99,wx200d/1.3,2013-04-16 06:11:00,
2013-04-16 02:16:00,43.9,32.0,30.24,West,263,2.7,0.0,53,0.00,,,-99.99,wx200d/1.3,2013-04-16 06:16:00,
2013-04-16 02:21:00,43.7,32.0,30.21,WNW,288,3.1,0.0,54,0.00,,,-99.99,wx200d/1.3,2013-04-16 06:21:00,
2013-04-16 02:26:00,43.5,32.0,30.21,SW,227,0.0,0.0,55,0.00,,,-99.99,wx200d/1.3,2013-04-16 06:26:00,
2013-04-16 02:31:00,43.5,32.0,30.21,WSW,253,3.6,3.6,56,0.00,,,-99.99,wx200d/1.3,2013-04-16 06:31:00,
2013-04-16 02:36:00,43.5,32.0,30.21,SSW,208,0.0,0.0,57,0.00,,,-99.99,wx200d/1.3,2013-04-16 06:36:00,
2013-04-16 02:41:00,43.3,32.0,30.21,WSW,237,4.0,4.0,58,0.00,,,-99.99,wx200d/1.3,2013-04-16 06:41:00,
2013-04-16 02:46:00,43.3,32.0,30.21,SSW,206,0.0,0.0,58,0.00,,,-99.99,wx200d/1.3,2013-04-16 06:46:00,
2013-04-16 02:51:00,43.3,32.0,30.21,WSW,240,4.9,4.9,59,0.00,,,-99.99,wx200d/1.3,2013-04-16 06:51:00,
2013-04-16 02:56:00,43.3,32.0,30.21,West,262,3.6,3.6,61,0.00,,,-99.99,wx200d/1.3,2013-04-16 06:56:00,
2013-04-16 03:01:00,43.3,32.0,30.21,WSW,238,3.1,0.0,62,0.00,,,-99.99,wx200d/1.3,2013-04-16 07:01:00,
2013-04-16 03:06:00,43.3,32.0,30.21,West,273,5.4,5.4,64,0.00,,,-99.99,wx200d/1.3,2013-04-16 07:06:00,
2013-04-16 03:11:00,43.2,32.0,30.21,West,272,4.0,4.9,66,0.00,,,-99.99,wx200d/1.3,2013-04-16 07:11:00,
2013-04-16 03:16:00,43.2,32.0,30.21,SW,227,3.6,3.6,67,0.00,,,-99.99,wx200d/1.3,2013-04-16 07:16:00,
2013-04-16 03:21:00,43.2,34.0,30.21,WSW,247,5.4,5.4,68,0.00,,,-99.99,wx200d/1.3,2013-04-16 07:21:00,
2013-04-16 03:26:00,43.2,34.0,30.21,NW,324,0.0,5.4,68,0.00,,,-99.99,wx200d/1.3,2013-04-16 07:26:00,
2013-04-16 03:31:00,43.0,34.0,30.21,WNW,286,4.0,4.9,68,0.00,,,-99.99,wx200d/1.3,2013-04-16 07:31:00,
2013-04-16 03:36:00,43.0,34.0,30.21,WNW,287,4.0,4.9,68,0.00,,,-99.99,wx200d/1.3,2013-04-16 07:36:00,
2013-04-16 03:41:00,43.0,34.0,30.21,WSW,258,4.9,4.9,69,0.00,,,-99.99,wx200d/1.3,2013-04-16 07:41:00,
2013-04-16 03:46:00,43.0,34.0,30.21,WNW,300,5.4,5.4,70,0.00,,,-99.99,wx200d/1.3,2013-04-16 07:46:00,
2013-04-16 03:51:00,43.0,34.0,30.21,West,270,5.8,7.4,72,0.00,,,-99.99,wx200d/1.3,2013-04-16 07:51:00,
2013-04-16 03:56:00,42.8,34.0,30.21,SW,234,5.4,5.4,72,0.00,,,-99.99,wx200d/1.3,2013-04-16 07:56:00,
2013-04-16 04:01:00,42.8,34.0,30.21,West,261,4.0,4.0,72,0.00,,,-99.99,wx200d/1.3,2013-04-16 08:01:00,
2013-04-16 04:06:00,42.6,34.0,30.21,WNW,284,4.0,5.4,72,0.00,,,-99.99,wx200d/1.3,2013-04-16 08:06:00,
2013-04-16 04:11:00,42.6,34.0,30.21,WNW,282,4.5,4.5,72,0.00,,,-99.99,wx200d/1.3,2013-04-16 08:11:00,
2013-04-16 04:16:00,42.4,34.0,30.21,West,268,3.6,0.0,72,0.00,,,-99.99,wx200d/1.3,2013-04-16 08:16:00,
2013-04-16 04:21:00,42.4,34.0,30.21,SW,228,0.0,4.5,72,0.00,,,-99.99,wx200d/1.3,2013-04-16 08:21:00,
2013-04-16 04:26:00,42.4,36.0,30.21,West,275,3.1,3.6,73,0.00,,,-99.99,wx200d/1.3,2013-04-16 08:26:00,
2013-04-16 04:31:00,42.3,36.0,30.21,West,259,0.0,0.0,73,0.00,,,-99.99,wx200d/1.3,2013-04-16 08:31:00,
2013-04-16 04:36:00,42.3,36.0,30.21,West,263,0.0,0.0,74,0.00,,,-99.99,wx200d/1.3,2013-04-16 08:36:00,
2013-04-16 04:41:00,42.4,36.0,30.21,West,266,4.0,4.0,74,0.00,,,-99.99,wx200d/1.3,2013-04-16 08:41:00,
2013-04-16 04:46:00,42.3,36.0,30.21,West,263,0.0,0.0,74,0.00,,,-99.99,wx200d/1.3,2013-04-16 08:46:00,
2013-04-16 04:51:00,42.3,36.0,30.21,SW,234,2.7,0.0,74,0.00,,,-99.99,wx200d/1.3,2013-04-16 08:51:00,
2013-04-16 04:56:00,42.3,36.0,30.21,WSW,249,3.1,3.1,74,0.00,,,-99.99,wx200d/1.3,2013-04-16 08:56:00,
2013-04-16 05:01:00,42.3,36.0,30.21,WSW,239,0.0,0.0,75,0.00,,,-99.99,wx200d/1.3,2013-04-16 09:01:00,
2013-04-16 05:06:00,42.1,36.0,30.21,WSW,239,0.0,0.0,75,0.00,,,-99.99,wx200d/1.3,2013-04-16 09:06:00,
2013-04-16 05:11:00,42.1,36.0,30.21,WSW,242,0.0,0.0,75,0.00,,,-99.99,wx200d/1.3,2013-04-16 09:11:00,
2013-04-16 05:16:00,41.9,36.0,30.21,WSW,242,0.0,0.0,75,0.00,,,-99.99,wx200d/1.3,2013-04-16 09:16:00,
2013-04-16 05:21:00,41.9,36.0,30.21,WSW,241,0.0,4.9,75,0.00,,,-99.99,wx200d/1.3,2013-04-16 09:21:00,
2013-04-16 05:26:00,41.7,34.0,30.21,SSW,213,0.0,0.0,75,0.00,,,-99.99,wx200d/1.3,2013-04-16 09:26:00,
2013-04-16 05:31:00,41.7,34.0,30.21,SW,228,0.0,0.0,75,0.00,,,-99.99,wx200d/1.3,2013-04-16 09:31:00,
2013-04-16 05:36:00,41.7,34.0,30.21,SW,228,3.1,0.0,75,0.00,,,-99.99,wx200d/1.3,2013-04-16 09:36:00,
2013-04-16 05:41:00,41.5,34.0,30.21,SW,228,0.0,0.0,75,0.00,,,-99.99,wx200d/1.3,2013-04-16 09:41:00,
2013-04-16 05:46:00,41.5,34.0,30.21,SW,228,0.0,0.0,75,0.00,,,-99.99,wx200d/1.3,2013-04-16 09:46:00,
2013-04-16 05:51:00,41.4,34.0,30.21,SW,228,0.0,0.0,75,0.00,,,-99.99,wx200d/1.3,2013-04-16 09:51:00,
2013-04-16 05:56:00,41.4,34.0,30.21,SSW,196,0.0,3.1,75,0.00,,,-99.99,wx200d/1.3,2013-04-16 09:56:00,
2013-04-16 06:01:00,41.4,34.0,30.21,WSW,256,0.0,0.0,75,0.00,,,-99.99,wx200d/1.3,2013-04-16 10:01:00,
2013-04-16 06:06:00,41.5,34.0,30.21,WNW,283,2.7,4.0,76,0.00,,,-99.99,wx200d/1.3,2013-04-16 10:06:00,
2013-04-16 06:11:00,41.5,34.0,30.21,SW,227,3.1,3.1,76,0.00,,,-99.99,wx200d/1.3,2013-04-16 10:11:00,
2013-04-16 06:16:00,41.5,34.0,30.21,WNW,294,3.1,3.1,76,0.00,,,-99.99,wx200d/1.3,2013-04-16 10:16:00,
2013-04-16 06:21:00,41.7,34.0,30.21,WSW,242,2.7,0.0,76,0.00,,,-99.99,wx200d/1.3,2013-04-16 10:21:00,
2013-04-16 06:26:00,42.1,36.0,30.21,South,184,0.0,2.7,76,0.00,,,-99.99,wx200d/1.3,2013-04-16 10:26:00,
2013-04-16 06:31:00,42.4,36.0,30.21,West,269,2.7,3.1,75,0.00,,,-99.99,wx200d/1.3,2013-04-16 10:31:00,
2013-04-16 06:36:00,43.5,36.0,30.21,West,263,3.1,0.0,76,0.00,,,-99.99,wx200d/1.3,2013-04-16 10:36:00,
2013-04-16 06:41:00,44.8,37.0,30.21,West,263,0.0,3.6,76,0.00,,,-99.99,wx200d/1.3,2013-04-16 10:41:00,
2013-04-16 06:46:00,45.5,37.0,30.21,WSW,237,0.0,0.0,71,0.00,,,-99.99,wx200d/1.3,2013-04-16 10:46:00,
2013-04-16 06:51:00,46.6,36.0,30.21,WSW,241,0.0,0.0,68,0.00,,,-99.99,wx200d/1.3,2013-04-16 10:51:00,
2013-04-16 06:56:00,47.8,37.0,30.21,WSW,242,0.0,0.0,64,0.00,,,-99.99,wx200d/1.3,2013-04-16 10:56:00,
2013-04-16 07:01:00,48.7,34.0,30.21,WSW,249,0.0,0.0,58,0.00,,,-99.99,wx200d/1.3,2013-04-16 11:01:00,
2013-04-16 07:06:00,49.1,32.0,30.21,West,272,4.0,0.0,48,0.00,,,-99.99,wx200d/1.3,2013-04-16 11:06:00,
2013-04-16 07:11:00,50.2,32.0,30.21,SSW,209,2.7,3.1,46,0.00,,,-99.99,wx200d/1.3,2013-04-16 11:11:00,
2013-04-16 07:16:00,51.1,32.0,30.21,SW,220,2.7,0.0,42,0.00,,,-99.99,wx200d/1.3,2013-04-16 11:16:00,
2013-04-16 07:21:00,51.3,32.0,30.21,West,274,4.0,4.0,39,0.00,,,-99.99,wx200d/1.3,2013-04-16 11:21:00,
2013-04-16 07:26:00,51.3,32.0,30.21,West,268,2.7,2.7,38,0.00,,,-99.99,wx200d/1.3,2013-04-16 11:26:00,
2013-04-16 07:31:00,52.3,32.0,30.21,SW,236,3.1,4.0,37,0.00,,,-99.99,wx200d/1.3,2013-04-16 11:31:00,
2013-04-16 07:36:00,52.5,32.0,30.21,West,270,3.6,0.0,36,0.00,,,-99.99,wx200d/1.3,2013-04-16 11:36:00,
2013-04-16 07:41:00,52.9,32.0,30.21,WSW,243,3.6,4.5,35,0.00,,,-99.99,wx200d/1.3,2013-04-16 11:41:00,
2013-04-16 07:46:00,53.2,32.0,30.21,West,274,4.0,4.9,34,0.00,,,-99.99,wx200d/1.3,2013-04-16 11:46:00,
2013-04-16 07:51:00,53.1,32.0,30.21,West,267,4.5,11.0,32,0.00,,,-99.99,wx200d/1.3,2013-04-16 11:51:00,
2013-04-16 07:56:00,52.9,32.0,30.21,South,174,4.9,9.2,32,0.00,,,-99.99,wx200d/1.3,2013-04-16 11:56:00,
2013-04-16 08:01:00,53.1,32.0,30.21,SSW,210,5.8,6.3,29,0.00,,,-99.99,wx200d/1.3,2013-04-16 12:01:00,
2013-04-16 08:06:00,54.0,32.0,30.21,NNE,29,3.1,4.9,28,0.00,,,-99.99,wx200d/1.3,2013-04-16 12:06:00,
2013-04-16 08:12:00,56.1,32.0,30.21,North,356,3.1,3.6,27,0.00,,,-99.99,wx200d/1.3,2013-04-16 12:12:00,
2013-04-16 08:17:00,56.5,32.0,30.21,SW,227,4.9,4.9,26,0.00,,,-99.99,wx200d/1.3,2013-04-16 12:17:00,
2013-04-16 08:22:00,57.9,32.0,30.21,WSW,250,3.6,3.6,25,0.00,,,-99.99,wx200d/1.3,2013-04-16 12:22:00,
2013-04-16 08:27:00,57.0,32.0,30.21,WSW,245,6.3,6.3,24,0.00,,,-99.99,wx200d/1.3,2013-04-16 12:27:00,
2013-04-16 08:32:00,57.4,32.0,30.21,SSE,162,4.0,4.0,24,0.00,,,-99.99,wx200d/1.3,2013-04-16 12:32:00,
2013-04-16 08:37:00,59.4,32.0,30.21,SSW,206,3.6,4.0,24,0.00,,,-99.99,wx200d/1.3,2013-04-16 12:37:00,
2013-04-16 08:42:00,59.7,32.0,30.21,SW,226,3.6,0.0,22,0.00,,,-99.99,wx200d/1.3,2013-04-16 12:42:00,
2013-04-16 08:47:00,58.8,32.0,30.21,WNW,294,4.0,4.0,22,0.00,,,-99.99,wx200d/1.3,2013-04-16 12:47:00,
2013-04-16 08:52:00,57.4,32.0,30.21,WSW,258,3.6,6.3,22,0.00,,,-99.99,wx200d/1.3,2013-04-16 12:52:00,
2013-04-16 08:57:00,59.4,32.0,30.21,ENE,61,3.1,4.9,22,0.00,,,-99.99,wx200d/1.3,2013-04-16 12:57:00,
2013-04-16 09:02:00,60.3,32.0,30.21,South,186,4.0,4.5,21,0.00,,,-99.99,wx200d/1.3,2013-04-16 13:02:00,
2013-04-16 09:07:00,60.3,32.0,30.21,South,180,4.9,4.9,19,0.00,,,-99.99,wx200d/1.3,2013-04-16 13:07:00,
2013-04-16 09:12:00,59.7,32.0,30.21,NW,316,4.9,4.9,19,0.00,,,-99.99,wx200d/1.3,2013-04-16 13:12:00,
2013-04-16 09:17:00,60.6,32.0,30.21,SSW,208,5.4,5.4,19,0.00,,,-99.99,wx200d/1.3,2013-04-16 13:17:00,
2013-04-16 09:22:00,61.9,32.0,30.18,SSE,152,3.1,4.0,18,0.00,,,-99.99,wx200d/1.3,2013-04-16 13:22:00,
2013-04-16 09:27:00,62.8,32.0,30.18,SSE,157,3.6,6.3,18,0.00,,,-99.99,wx200d/1.3,2013-04-16 13:27:00,
2013-04-16 09:32:00,63.1,32.0,30.18,WNW,284,0.0,4.0,18,0.00,,,-99.99,wx200d/1.3,2013-04-16 13:32:00,
2013-04-16 09:37:00,62.2,32.0,30.18,WSW,255,6.3,6.9,18,0.00,,,-99.99,wx200d/1.3,2013-04-16 13:37:00,
2013-04-16 09:42:00,59.0,32.0,30.18,West,276,10.1,10.1,19,0.00,,,-99.99,wx200d/1.3,2013-04-16 13:42:00,
2013-04-16 09:47:00,59.0,32.0,30.18,WNW,299,8.3,8.3,22,0.00,,,-99.99,wx200d/1.3,2013-04-16 13:47:00,
2013-04-16 09:52:00,59.2,32.0,30.18,SW,234,7.8,12.1,22,0.00,,,-99.99,wx200d/1.3,2013-04-16 13:52:00,
2013-04-16 09:57:00,59.4,32.0,30.18,West,268,9.2,9.2,22,0.00,,,-99.99,wx200d/1.3,2013-04-16 13:57:00,
2013-04-16 10:02:00,61.0,32.0,30.18,SSW,197,7.4,7.8,19,0.00,,,-99.99,wx200d/1.3,2013-04-16 14:02:00,
2013-04-16 10:07:00,61.9,32.0,30.18,West,274,4.5,6.7,18,0.00,,,-99.99,wx200d/1.3,2013-04-16 14:07:00,
2013-04-16 10:12:00,60.4,32.0,30.18,NW,307,6.9,8.7,19,0.00,,,-99.99,wx200d/1.3,2013-04-16 14:12:00,
2013-04-16 10:17:00,62.2,32.0,30.18,WSW,249,5.4,5.4,18,0.00,,,-99.99,wx200d/1.3,2013-04-16 14:17:00,
2013-04-16 10:22:00,63.3,32.0,30.18,WNW,301,5.4,5.4,16,0.00,,,-99.99,wx200d/1.3,2013-04-16 14:22:00,
2013-04-16 10:27:00,63.5,32.0,30.18,SSW,206,6.9,6.9,16,0.00,,,-99.99,wx200d/1.3,2013-04-16 14:27:00,
2013-04-16 10:32:00,64.0,32.0,30.18,West,262,3.6,0.0,15,0.00,,,-99.99,wx200d/1.3,2013-04-16 14:32:00,
2013-04-16 10:37:00,63.7,32.0,30.18,NW,313,6.3,9.6,15,0.00,,,-99.99,wx200d/1.3,2013-04-16 14:37:00,
2013-04-16 10:42:00,63.1,32.0,30.18,SSW,201,6.3,6.3,16,0.00,,,-99.99,wx200d/1.3,2013-04-16 14:42:00,
2013-04-16 10:47:00,64.0,32.0,30.18,WSW,246,4.5,6.7,15,0.00,,,-99.99,wx200d/1.3,2013-04-16 14:47:00,
2013-04-16 10:52:00,65.1,32.0,30.18,WNW,286,3.6,7.8,15,0.00,,,-99.99,wx200d/1.3,2013-04-16 14:52:00,
2013-04-16 10:57:00,65.7,32.0,30.18,SSE,160,4.5,4.9,15,0.00,,,-99.99,wx200d/1.3,2013-04-16 14:57:00,
2013-04-16 11:02:00,64.9,32.0,30.18,SW,229,6.3,10.1,15,0.00,,,-99.99,wx200d/1.3,2013-04-16 15:02:00,
2013-04-16 11:07:00,64.0,32.0,30.18,West,273,9.6,13.4,15,0.00,,,-99.99,wx200d/1.3,2013-04-16 15:07:00,
2013-04-16 11:12:00,64.8,32.0,30.18,NNW,327,6.7,10.1,15,0.00,,,-99.99,wx200d/1.3,2013-04-16 15:12:00,
2013-04-16 11:17:00,64.9,32.0,30.18,WSW,255,7.8,11.2,15,0.00,,,-99.99,wx200d/1.3,2013-04-16 15:17:00,
2013-04-16 11:22:00,65.3,32.0,30.15,SSW,197,5.8,11.2,15,0.00,,,-99.99,wx200d/1.3,2013-04-16 15:22:00,
2013-04-16 11:27:00,65.7,32.0,30.15,SW,220,6.7,6.7,15,0.00,,,-99.99,wx200d/1.3,2013-04-16 15:27:00,
2013-04-16 11:33:00,67.1,32.0,30.15,SW,221,5.4,5.4,15,0.00,,,-99.99,wx200d/1.3,2013-04-16 15:33:00,
2013-04-16 11:38:00,68.2,32.0,30.15,West,263,6.7,12.5,15,0.00,,,-99.99,wx200d/1.3,2013-04-16 15:38:00,
2013-04-16 11:43:00,66.7,32.0,30.15,West,277,6.9,6.9,15,0.00,,,-99.99,wx200d/1.3,2013-04-16 15:43:00,
2013-04-16 11:48:00,65.5,32.0,30.15,West,265,8.7,8.7,15,0.00,,,-99.99,wx200d/1.3,2013-04-16 15:48:00,
2013-04-16 11:53:00,65.5,32.0,30.12,North,6,8.3,8.3,15,0.00,,,-99.99,wx200d/1.3,2013-04-16 15:53:00,
2013-04-16 11:58:00,66.4,32.0,30.12,WSW,251,8.3,0.0,15,0.00,,,-99.99,wx200d/1.3,2013-04-16 15:58:00,
2013-04-16 12:03:00,66.6,32.0,30.12,West,265,8.7,8.7,15,0.00,,,-99.99,wx200d/1.3,2013-04-16 16:03:00,
2013-04-16 12:08:00,66.9,32.0,30.12,SW,220,8.3,8.3,15,0.00,,,-99.99,wx200d/1.3,2013-04-16 16:08:00,
2013-04-16 12:13:00,66.6,32.0,30.12,WNW,290,9.6,9.6,15,0.00,,,-99.99,wx200d/1.3,2013-04-16 16:13:00,
2013-04-16 12:18:00,67.3,32.0,30.12,South,178,6.3,9.2,15,0.00,,,-99.99,wx200d/1.3,2013-04-16 16:18:00,
2013-04-16 12:23:00,67.1,32.0,30.09,South,191,4.0,7.8,15,0.00,,,-99.99,wx200d/1.3,2013-04-16 16:23:00,
2013-04-16 12:28:00,66.4,32.0,30.09,NE,53,13.0,13.0,15,0.00,,,-99.99,wx200d/1.3,2013-04-16 16:28:00,
2013-04-16 12:33:00,66.2,32.0,30.09,West,262,11.2,12.1,15,0.00,,,-99.99,wx200d/1.3,2013-04-16 16:33:00,
2013-04-16 12:38:00,66.2,32.0,30.09,WNW,289,11.6,11.6,15,0.00,,,-99.99,wx200d/1.3,2013-04-16 16:38:00,
2013-04-16 12:43:00,67.1,32.0,30.09,West,271,9.6,9.6,15,0.00,,,-99.99,wx200d/1.3,2013-04-16 16:43:00,
2013-04-16 12:49:00,67.3,32.0,30.09,WNW,287,10.1,10.1,15,0.00,,,-99.99,wx200d/1.3,2013-04-16 16:49:00,
2013-04-16 12:54:00,66.9,32.0,30.09,South,191,9.6,11.6,15,0.00,,,-99.99,wx200d/1.3,2013-04-16 16:54:00,
2013-04-16 12:59:00,67.1,32.0,30.09,West,274,8.3,12.5,15,0.00,,,-99.99,wx200d/1.3,2013-04-16 16:59:00,
2013-04-16 13:04:00,66.6,32.0,30.09,WSW,257,6.3,6.3,15,0.00,,,-99.99,wx200d/1.3,2013-04-16 17:04:00,
2013-04-16 13:09:00,66.9,32.0,30.06,West,266,12.1,14.8,15,0.00,,,-99.99,wx200d/1.3,2013-04-16 17:09:00,
2013-04-16 13:14:00,66.9,32.0,30.06,WNW,294,5.8,9.2,15,0.00,,,-99.99,wx200d/1.3,2013-04-16 17:14:00,
2013-04-16 13:19:00,68.0,32.0,30.06,West,264,6.3,6.3,15,0.00,,,-99.99,wx200d/1.3,2013-04-16 17:19:00,
2013-04-16 13:24:00,68.9,32.0,30.06,West,267,9.6,9.6,14,0.00,,,-99.99,wx200d/1.3,2013-04-16 17:24:00,
2013-04-16 13:29:00,68.4,32.0,30.06,SE,126,9.6,9.6,15,0.00,,,-99.99,wx200d/1.3,2013-04-16 17:29:00,
2013-04-16 13:34:00,69.1,32.0,30.06,SSW,192,5.8,6.7,14,0.00,,,-99.99,wx200d/1.3,2013-04-16 17:34:00,
2013-04-16 13:39:00,68.4,32.0,30.06,NNW,331,6.7,6.7,15,0.00,,,-99.99,wx200d/1.3,2013-04-16 17:39:00,
2013-04-16 13:44:00,67.8,32.0,30.06,WNW,287,9.6,11.6,15,0.00,,,-99.99,wx200d/1.3,2013-04-16 17:44:00,
2013-04-16 13:49:00,67.5,32.0,30.06,West,277,13.0,13.0,15,0.00,,,-99.99,wx200d/1.3,2013-04-16 17:49:00,
2013-04-16 13:54:00,66.7,32.0,30.06,WSW,246,9.2,9.2,15,0.00,,,-99.99,wx200d/1.3,2013-04-16 17:54:00,
2013-04-16 13:59:00,67.1,32.0,30.06,NE,36,9.2,9.2,15,0.00,,,-99.99,wx200d/1.3,2013-04-16 17:59:00,
2013-04-16 14:04:00,67.5,32.0,30.06,West,271,7.4,7.8,15,0.00,,,-99.99,wx200d/1.3,2013-04-16 18:04:00,
2013-04-16 14:09:00,68.0,32.0,30.06,NW,321,11.0,11.0,15,0.00,,,-99.99,wx200d/1.3,2013-04-16 18:09:00,
2013-04-16 14:14:00,67.3,32.0,30.06,SW,214,8.7,8.7,15,0.00,,,-99.99,wx200d/1.3,2013-04-16 18:14:00,
2013-04-16 14:19:00,67.8,32.0,30.06,SSW,198,4.9,5.4,15,0.00,,,-99.99,wx200d/1.3,2013-04-16 18:19:00,
2013-04-16 14:24:00,67.5,32.0,30.06,WNW,294,10.1,12.1,15,0.00,,,-99.99,wx200d/1.3,2013-04-16 18:24:00,
2013-04-16 14:29:00,66.9,32.0,30.06,WNW,282,5.8,7.8,17,0.00,,,-99.99,wx200d/1.3,2013-04-16 18:29:00,
2013-04-16 14:34:00,66.9,32.0,30.06,ENE,75,10.5,10.5,17,0.00,,,-99.99,wx200d/1.3,2013-04-16 18:34:00,
2013-04-16 14:39:00,66.4,32.0,30.06,SW,224,9.2,12.5,17,0.00,,,-99.99,wx200d/1.3,2013-04-16 18:39:00,
2013-04-16 14:44:00,65.7,32.0,30.06,West,279,13.4,13.4,17,0.00,,,-99.99,wx200d/1.3,2013-04-16 18:44:00,
2013-04-16 14:49:00,65.8,32.0,30.06,North,351,7.4,7.4,17,0.00,,,-99.99,wx200d/1.3,2013-04-16 18:49:00,
2013-04-16 14:54:00,66.4,32.0,30.03,WNW,289,5.4,5.8,17,0.00,,,-99.99,wx200d/1.3,2013-04-16 18:54:00,
2013-04-16 14:59:00,66.6,32.0,30.03,SSW,201,7.8,9.6,17,0.00,,,-99.99,wx200d/1.3,2013-04-16 18:59:00,
2013-04-16 15:04:00,66.2,32.0,30.03,West,277,11.2,11.2,17,0.00,,,-99.99,wx200d/1.3,2013-04-16 19:04:00,
2013-04-16 15:09:00,66.4,32.0,30.03,WNW,288,6.9,6.9,17,0.00,,,-99.99,wx200d/1.3,2013-04-16 19:09:00,
2013-04-16 15:14:00,66.2,32.0,30.03,North,4,8.7,13.0,17,0.00,,,-99.99,wx200d/1.3,2013-04-16 19:14:00,
2013-04-16 15:19:00,65.7,32.0,30.03,West,259,11.0,11.0,17,0.00,,,-99.99,wx200d/1.3,2013-04-16 19:19:00,
2013-04-16 15:24:00,65.5,32.0,30.00,NW,312,5.4,7.4,17,0.00,,,-99.99,wx200d/1.3,2013-04-16 19:24:00,
2013-04-16 15:29:00,65.8,32.0,30.00,NW,305,5.8,5.8,17,0.00,,,-99.99,wx200d/1.3,2013-04-16 19:29:00,
2013-04-16 15:34:00,65.1,32.0,30.00,West,279,9.2,9.2,18,0.00,,,-99.99,wx200d/1.3,2013-04-16 19:34:00,
2013-04-16 15:39:00,65.7,32.0,30.00,WSW,244,9.2,9.2,17,0.00,,,-99.99,wx200d/1.3,2013-04-16 19:39:00,
2013-04-16 15:44:00,64.9,32.0,30.00,North,356,11.2,12.5,18,0.00,,,-99.99,wx200d/1.3,2013-04-16 19:44:00,
2013-04-16 15:49:00,65.7,32.0,30.00,WSW,238,7.8,7.8,17,0.00,,,-99.99,wx200d/1.3,2013-04-16 19:49:00,
2013-04-16 15:54:00,65.5,32.0,30.00,WNW,294,6.7,13.9,15,0.00,,,-99.99,wx200d/1.3,2013-04-16 19:54:00,
2013-04-16 15:59:00,64.6,32.0,30.00,SSW,195,6.3,9.2,15,0.00,,,-99.99,wx200d/1.3,2013-04-16 19:59:00,
2013-04-16 16:04:00,64.4,32.0,30.00,SW,215,8.3,8.3,18,0.00,,,-99.99,wx200d/1.3,2013-04-16 20:04:00,
2013-04-16 16:09:00,63.7,32.0,30.00,WNW,283,10.1,13.9,18,0.00,,,-99.99,wx200d/1.3,2013-04-16 20:09:00,
2013-04-16 16:14:00,62.6,32.0,30.00,West,264,11.2,11.2,18,0.00,,,-99.99,wx200d/1.3,2013-04-16 20:14:00,
2013-04-16 16:19:00,62.6,32.0,30.00,West,261,10.1,10.1,21,0.00,,,-99.99,wx200d/1.3,2013-04-16 20:19:00,
2013-04-16 16:24:00,62.4,32.0,30.00,NNW,342,9.6,11.6,21,0.00,,,-99.99,wx200d/1.3,2013-04-16 20:24:00,
2013-04-16 16:29:00,62.2,32.0,30.00,West,264,6.7,11.0,23,0.00,,,-99.99,wx200d/1.3,2013-04-16 20:29:00,
2013-04-16 16:34:00,62.4,32.0,30.00,WNW,287,7.4,7.4,24,0.00,,,-99.99,wx200d/1.3,2013-04-16 20:34:00,
2013-04-16 16:39:00,62.6,32.0,30.00,West,266,9.2,13.9,24,0.00,,,-99.99,wx200d/1.3,2013-04-16 20:39:00,
2013-04-16 16:44:00,62.4,32.0,30.00,WSW,256,7.4,7.4,24,0.00,,,-99.99,wx200d/1.3,2013-04-16 20:44:00,
2013-04-16 16:49:00,61.7,32.0,30.00,West,280,8.3,8.3,25,0.00,,,-99.99,wx200d/1.3,2013-04-16 20:49:00,
2013-04-16 16:54:00,61.9,32.0,30.00,West,263,6.7,6.7,25,0.00,,,-99.99,wx200d/1.3,2013-04-16 20:54:00,
2013-04-16 16:59:00,62.4,32.0,30.00,West,263,4.0,4.0,25,0.00,,,-99.99,wx200d/1.3,2013-04-16 20:59:00,
2013-04-16 17:04:00,61.3,32.0,30.00,South,189,6.7,6.7,29,0.00,,,-99.99,wx200d/1.3,2013-04-16 21:04:00,
2013-04-16 17:09:00,60.8,32.0,29.97,South,184,7.4,7.4,34,0.00,,,-99.99,wx200d/1.3,2013-04-16 21:09:00,
2013-04-16 17:14:00,60.3,32.0,29.97,West,269,7.8,12.1,34,0.00,,,-99.99,wx200d/1.3,2013-04-16 21:14:00,
2013-04-16 17:19:00,60.3,32.0,29.97,WSW,258,4.0,11.0,34,0.00,,,-99.99,wx200d/1.3,2013-04-16 21:19:00,
2013-04-16 17:24:00,59.7,32.0,29.97,SSW,194,7.4,7.4,36,0.00,,,-99.99,wx200d/1.3,2013-04-16 21:24:00,
2013-04-16 17:29:00,60.1,34.0,29.97,SW,223,8.7,8.7,35,0.00,,,-99.99,wx200d/1.3,2013-04-16 21:29:00,
2013-04-16 17:34:00,59.7,32.0,29.97,WSW,243,11.2,12.5,35,0.00,,,-99.99,wx200d/1.3,2013-04-16 21:34:00,
2013-04-16 17:39:00,59.5,32.0,29.94,WSW,253,12.1,12.1,34,0.00,,,-99.99,wx200d/1.3,2013-04-16 21:39:00,
2013-04-16 17:45:00,59.5,32.0,29.94,NW,317,6.7,8.7,35,0.00,,,-99.99,wx200d/1.3,2013-04-16 21:45:00,
2013-04-16 17:50:00,59.7,32.0,29.97,SSW,202,9.2,11.2,35,0.00,,,-99.99,wx200d/1.3,2013-04-16 21:50:00,
2013-04-16 17:55:00,59.5,32.0,29.97,WNW,293,11.2,11.2,35,0.00,,,-99.99,wx200d/1.3,2013-04-16 21:55:00,
2013-04-16 18:00:00,59.2,32.0,29.97,West,269,9.6,11.0,35,0.00,,,-99.99,wx200d/1.3,2013-04-16 22:00:00,
2013-04-16 18:05:00,59.2,32.0,29.94,WNW,288,10.1,10.1,36,0.00,,,-99.99,wx200d/1.3,2013-04-16 22:05:00,
2013-04-16 18:10:00,59.4,32.0,29.94,NNW,328,8.7,9.6,36,0.00,,,-99.99,wx200d/1.3,2013-04-16 22:10:00,
2013-04-16 18:15:00,59.2,32.0,29.94,WSW,239,9.6,9.6,36,0.00,,,-99.99,wx200d/1.3,2013-04-16 22:15:00,
2013-04-16 18:20:00,58.8,32.0,29.94,WSW,251,11.0,11.0,37,0.00,,,-99.99,wx200d/1.3,2013-04-16 22:20:00,
2013-04-16 18:25:00,58.8,32.0,29.94,WSW,246,7.4,13.0,37,0.00,,,-99.99,wx200d/1.3,2013-04-16 22:25:00,
2013-04-16 18:30:00,58.6,34.0,29.94,West,259,8.7,10.5,38,0.00,,,-99.99,wx200d/1.3,2013-04-16 22:30:00,
2013-04-16 18:35:00,58.5,34.0,29.94,SSW,202,6.9,6.9,38,0.00,,,-99.99,wx200d/1.3,2013-04-16 22:35:00,
2013-04-16 18:40:00,58.3,34.0,29.94,NW,322,9.6,9.6,39,0.00,,,-99.99,wx200d/1.3,2013-04-16 22:40:00,
2013-04-16 18:45:00,58.5,34.0,29.94,WNW,284,4.9,6.3,39,0.00,,,-99.99,wx200d/1.3,2013-04-16 22:45:00,
2013-04-16 18:50:00,58.3,36.0,29.94,West,277,8.3,8.3,40,0.00,,,-99.99,wx200d/1.3,2013-04-16 22:50:00,
2013-04-16 18:55:00,58.1,36.0,29.94,WSW,252,6.9,6.9,40,0.00,,,-99.99,wx200d/1.3,2013-04-16 22:55:00,
2013-04-16 19:00:00,57.9,34.0,29.94,WSW,244,8.7,8.7,41,0.00,,,-99.99,wx200d/1.3,2013-04-16 23:00:00,
2013-04-16 19:05:00,57.7,34.0,29.94,NW,304,6.9,6.9,42,0.00,,,-99.99,wx200d/1.3,2013-04-16 23:05:00,
2013-04-16 19:10:00,57.7,36.0,29.94,SW,231,8.7,8.7,43,0.00,,,-99.99,wx200d/1.3,2013-04-16 23:10:00,
2013-04-16 19:15:00,57.6,36.0,29.94,WNW,288,11.0,11.0,44,0.00,,,-99.99,wx200d/1.3,2013-04-16 23:15:00,
2013-04-16 19:20:00,57.7,36.0,29.94,NW,309,9.2,9.2,44,0.00,,,-99.99,wx200d/1.3,2013-04-16 23:20:00,
2013-04-16 19:25:00,57.7,36.0,29.94,WSW,238,4.0,5.8,44,0.00,,,-99.99,wx200d/1.3,2013-04-16 23:25:00,
2013-04-16 19:30:00,57.9,36.0,29.94,WSW,252,9.6,9.6,44,0.00,,,-99.99,wx200d/1.3,2013-04-16 23:30:00,
2013-04-16 19:35:00,57.7,36.0,29.94,West,268,4.5,10.1,45,0.00,,,-99.99,wx200d/1.3,2013-04-16 23:35:00,
2013-04-16 19:41:00,57.6,36.0,29.94,West,276,10.5,10.5,45,0.00,,,-99.99,wx200d/1.3,2013-04-16 23:41:00,
2013-04-16 19:46:00,57.6,37.0,29.94,SSW,202,5.8,10.1,46,0.00,,,-99.99,wx200d/1.3,2013-04-16 23:46:00,
2013-04-16 19:51:00,57.6,37.0,29.94,West,269,5.8,12.1,46,0.00,,,-99.99,wx200d/1.3,2013-04-16 23:51:00,
2013-04-16 19:56:00,57.6,37.0,29.94,WNW,283,11.6,12.1,46,0.00,,,-99.99,wx200d/1.3,2013-04-16 23:56:00,
2013-04-16 20:01:00,57.6,37.0,29.94,SW,216,11.6,11.6,47,0.00,,,-99.99,wx200d/1.3,2013-04-17 00:01:00,
2013-04-16 20:06:00,57.6,37.0,29.94,WSW,251,8.7,8.7,47,0.00,,,-99.99,wx200d/1.3,2013-04-17 00:06:00,
2013-04-16 20:11:00,57.6,37.0,29.94,NW,321,9.6,11.2,47,0.00,,,-99.99,wx200d/1.3,2013-04-17 00:11:00,
2013-04-16 20:16:00,57.4,37.0,29.94,West,273,11.6,11.6,47,0.00,,,-99.99,wx200d/1.3,2013-04-17 00:16:00,
2013-04-16 20:21:00,57.4,37.0,29.94,WNW,296,12.5,13.9,48,0.00,,,-99.99,wx200d/1.3,2013-04-17 00:21:00,
2013-04-16 20:26:00,57.4,37.0,29.94,NW,310,8.7,8.7,48,0.00,,,-99.99,wx200d/1.3,2013-04-17 00:26:00,
2013-04-16 20:31:00,57.4,37.0,29.94,WNW,282,8.3,10.5,48,0.00,,,-99.99,wx200d/1.3,2013-04-17 00:31:00,
2013-04-16 20:36:00,57.2,37.0,29.94,WSW,251,14.3,14.3,48,0.00,,,-99.99,wx200d/1.3,2013-04-17 00:36:00,
2013-04-16 20:41:00,57.2,37.0,29.94,WNW,303,10.1,11.0,48,0.00,,,-99.99,wx200d/1.3,2013-04-17 00:41:00,
2013-04-16 20:46:00,57.4,37.0,29.94,WSW,250,7.8,11.6,48,0.00,,,-99.99,wx200d/1.3,2013-04-17 00:46:00,
2013-04-16 20:51:00,57.2,37.0,29.94,West,275,12.1,12.1,48,0.00,,,-99.99,wx200d/1.3,2013-04-17 00:51:00,
2013-04-16 20:56:00,57.2,37.0,29.94,WNW,293,10.1,11.6,48,0.00,,,-99.99,wx200d/1.3,2013-04-17 00:56:00,
2013-04-16 21:01:00,57.2,37.0,29.94,West,279,10.5,10.5,49,0.00,,,-99.99,wx200d/1.3,2013-04-17 01:01:00,
2013-04-16 21:06:00,57.2,37.0,29.94,NW,317,15.2,15.2,49,0.00,,,-99.99,wx200d/1.3,2013-04-17 01:06:00,
2013-04-16 21:11:00,57.2,37.0,29.94,WNW,290,11.6,11.6,49,0.00,,,-99.99,wx200d/1.3,2013-04-17 01:11:00,
2013-04-16 21:16:00,57.4,37.0,29.94,West,274,11.2,11.6,49,0.00,,,-99.99,wx200d/1.3,2013-04-17 01:16:00,
2013-04-16 21:21:00,57.2,37.0,29.91,West,280,8.7,10.1,49,0.00,,,-99.99,wx200d/1.3,2013-04-17 01:21:00,
2013-04-16 21:26:00,57.2,39.0,29.91,West,274,7.8,10.1,50,0.00,,,-99.99,wx200d/1.3,2013-04-17 01:26:00,
2013-04-16 21:31:00,57.2,39.0,29.91,South,186,11.0,11.0,50,0.00,,,-99.99,wx200d/1.3,2013-04-17 01:31:00,
2013-04-16 21:36:00,57.2,39.0,29.88,SW,233,8.3,8.3,51,0.00,,,-99.99,wx200d/1.3,2013-04-17 01:36:00,
2013-04-16 21:41:00,57.2,39.0,29.88,WSW,252,9.6,9.6,51,0.00,,,-99.99,wx200d/1.3,2013-04-17 01:41:00,
2013-04-16 21:46:00,57.0,39.0,29.88,NW,308,8.7,12.1,52,0.00,,,-99.99,wx200d/1.3,2013-04-17 01:46:00,
2013-04-16 21:51:00,57.0,39.0,29.91,WNW,290,8.7,8.7,52,0.00,,,-99.99,wx200d/1.3,2013-04-17 01:51:00,
2013-04-16 21:56:00,57.0,41.0,29.91,WSW,243,11.0,14.3,53,0.00,,,-99.99,wx200d/1.3,2013-04-17 01:56:00,
2013-04-16 22:01:00,57.2,41.0,29.91,WSW,241,13.9,13.9,54,0.00,,,-99.99,wx200d/1.3,2013-04-17 02:01:00,
2013-04-16 22:06:00,57.2,41.0,29.91,West,280,13.0,13.0,54,0.00,,,-99.99,wx200d/1.3,2013-04-17 02:06:00,
2013-04-16 22:11:00,57.2,41.0,29.91,WNW,290,10.5,10.5,54,0.00,,,-99.99,wx200d/1.3,2013-04-17 02:11:00,
2013-04-16 22:16:00,57.2,41.0,29.91,West,275,11.2,17.7,55,0.00,,,-99.99,wx200d/1.3,2013-04-17 02:16:00,
2013-04-16 22:21:00,57.2,41.0,29.91,SSW,206,9.6,10.1,54,0.00,,,-99.99,wx200d/1.3,2013-04-17 02:21:00,
2013-04-16 22:26:00,57.2,41.0,29.91,WNW,298,10.1,10.1,54,0.00,,,-99.99,wx200d/1.3,2013-04-17 02:26:00,
2013-04-16 22:31:00,57.4,41.0,29.91,West,268,11.6,14.8,54,0.00,,,-99.99,wx200d/1.3,2013-04-17 02:31:00,
2013-04-16 22:37:00,57.4,41.0,29.91,West,264,10.1,11.2,55,0.00,,,-99.99,wx200d/1.3,2013-04-17 02:37:00,
2013-04-16 22:43:00,57.4,41.0,29.91,West,268,10.5,10.5,55,0.00,,,-99.99,wx200d/1.3,2013-04-17 02:43:00,
2013-04-16 22:48:00,57.6,41.0,29.91,WSW,253,9.6,9.6,55,0.00,,,-99.99,wx200d/1.3,2013-04-17 02:48:00,
2013-04-16 22:54:00,57.4,41.0,29.88,West,263,11.2,13.4,55,0.00,,,-99.99,wx200d/1.3,2013-04-17 02:54:00,
2013-04-16 22:59:00,57.6,41.0,29.88,SSW,213,13.9,13.9,56,0.00,,,-99.99,wx200d/1.3,2013-04-17 02:59:00,
2013-04-16 23:04:00,57.6,41.0,29.88,West,266,11.2,11.2,56,0.00,,,-99.99,wx200d/1.3,2013-04-17 03:04:00,
2013-04-16 23:09:00,57.6,41.0,29.88,WNW,284,10.5,10.5,56,0.00,,,-99.99,wx200d/1.3,2013-04-17 03:09:00,
2013-04-16 23:14:00,57.4,43.0,29.88,West,262,8.3,9.2,57,0.00,,,-99.99,wx200d/1.3,2013-04-17 03:14:00,
2013-04-16 23:19:00,57.6,43.0,29.88,WNW,294,11.6,12.1,57,0.00,,,-99.99,wx200d/1.3,2013-04-17 03:19:00,
2013-04-16 23:24:00,57.4,43.0,29.88,West,277,9.6,9.6,57,0.00,,,-99.99,wx200d/1.3,2013-04-17 03:24:00,
2013-04-16 23:29:00,57.4,43.0,29.88,WNW,295,10.5,10.5,58,0.00,,,-99.99,wx200d/1.3,2013-04-17 03:29:00,
2013-04-16 23:34:00,57.6,43.0,29.88,West,274,11.0,11.0,57,0.00,,,-99.99,wx200d/1.3,2013-04-17 03:34:00,
2013-04-16 23:39:00,57.6,43.0,29.88,West,273,11.0,11.0,57,0.00,,,-99.99,wx200d/1.3,2013-04-17 03:39:00,
2013-04-16 23:44:00,57.6,43.0,29.88,South,186,9.2,11.0,57,0.00,,,-99.99,wx200d/1.3,2013-04-17 03:44:00,
2013-04-16 23:49:00,57.7,43.0,29.88,WSW,247,13.9,13.9,57,0.00,,,-99.99,wx200d/1.3,2013-04-17 03:49:00,
2013-04-16 23:54:00,57.9,43.0,29.88,WNW,296,12.1,12.1,57,0.00,,,-99.99,wx200d/1.3,2013-04-17 03:54:00,
2013-04-16 23:59:00,57.9,43.0,29.88,WSW,253,14.8,14.8,57,0.00,,,-99.99,wx200d/1.3,2013-04-17 03:59:00,